< < Back
Terminal Aerodrome Forecast


Current Version              Previous Versions:   1  2  3  4  5  6  7  8  9  

Terminal Aerodrome Forecast

933
FTUS42 KILM 261720
TAFILM
TAF
KILM 261720Z 2618/2718 18010KT P6SM SCT050
     FM270100 00000KT P6SM SCT070 SCT250
     FM271200 07004KT P6SM SKC=

Latest METAR

086
SAUS70 KWBC 262000 RRF
MTRILM
METAR KILM 261953Z AUTO 18010KT 10SM FEW050 28/17 A3015 RMK AO2 SLP208
T02830172


USA.gov is the U.S. government's official web portal to all federal, state and local government web resources and services.